sensor_id;sensor_type;location;lat;lon;timestamp;pressure;altitude;pressure_sealevel;temperature;humidity
25658;BME280;13517;59.320;18.042;2024-03-08T00:00:14;102242.03;;;-1.10;100.00
25658;BME280;13517;59.320;18.042;2024-03-08T00:02:44;102242.03;;;-1.13;100.00
25658;BME280;13517;59.320;18.042;2024-03-08T00:05:10;102234.84;;;-1.24;100.00
25658;BME280;13517;59.320;18.042;2024-03-08T00:07:40;102214.38;;;-1.39;100.00
25658;BME280;13517;59.320;18.042;2024-03-08T00:10:07;102240.13;;;-1.25;100.00
25658;BME280;13517;59.320;18.042;2024-03-08T00:12:39;102224.97;;;-1.39;100.00
25658;BME280;13517;59.320;18.042;2024-03-08T00:15:08;102184.19;;;-1.53;100.00
25658;BME280;13517;59.320;18.042;2024-03-08T00:17:33;102249.91;;;-1.18;100.00
25658;BME280;13517;59.320;18.042;2024-03-08T00:19:59;102185.13;;;-1.51;100.00
25658;BME280;13517;59.320;18.042;2024-03-08T00:22:24;102233.94;;;-1.24;100.00
25658;BME280;13517;59.320;18.042;2024-03-08T00:24:50;102229.53;;;-1.24;100.00
25658;BME280;13517;59.320;18.042;2024-03-08T00:27:16;102206.47;;;-1.35;100.00
25658;BME280;13517;59.320;18.042;2024-03-08T00:29:42;102224.16;;;-1.33;100.00
25658;BME280;13517;59.320;18.042;2024-03-08T00:32:07;102180.66;;;-1.55;100.00
25658;BME280;13517;59.320;18.042;2024-03-08T00:34:36;102177.97;;;-1.60;100.00
25658;BME280;13517;59.320;18.042;2024-03-08T00:37:04;102201.06;;;-1.43;100.00
25658;BME280;13517;59.320;18.042;2024-03-08T00:39:30;102216.22;;;-1.33;100.00
25658;BME280;13517;59.320;18.042;2024-03-08T00:41:56;102205.56;;;-1.38;100.00
25658;BME280;13517;59.320;18.042;2024-03-08T00:44:21;102137.25;;;-1.70;100.00
25658;BME280;13517;59.320;18.042;2024-03-08T00:46:46;102201.19;;;-1.31;100.00
25658;BME280;13517;59.320;18.042;2024-03-08T00:49:12;102171.00;;;-1.50;100.00
25658;BME280;13517;59.320;18.042;2024-03-08T00:51:38;102147.00;;;-1.64;100.00
25658;BME280;13517;59.320;18.042;2024-03-08T00:54:03;102189.59;;;-1.42;100.00
25658;BME280;13517;59.320;18.042;2024-03-08T00:56:29;102186.03;;;-1.46;100.00
25658;BME280;13517;59.320;18.042;2024-03-08T00:58:54;102145.22;;;-1.65;100.00
25658;BME280;13517;59.320;18.042;2024-03-08T01:01:20;102172.72;;;-1.54;100.00
25658;BME280;13517;59.320;18.042;2024-03-08T01:03:45;102146.97;;;-1.69;100.00
25658;BME280;13517;59.320;18.042;2024-03-08T01:06:11;102213.56;;;-1.33;100.00
25658;BME280;13517;59.320;18.042;2024-03-08T01:08:37;102160.31;;;-1.59;100.00
25658;BME280;13517;59.320;18.042;2024-03-08T01:11:04;102225.09;;;-1.26;100.00
25658;BME280;13517;59.320;18.042;2024-03-08T01:13:30;102130.16;;;-1.71;100.00
25658;BME280;13517;59.320;18.042;2024-03-08T01:15:56;102211.81;;;-1.31;100.00
25658;BME280;13517;59.320;18.042;2024-03-08T01:18:21;102154.03;;;-1.69;100.00
25658;BME280;13517;59.320;18.042;2024-03-08T01:20:47;102155.81;;;-1.68;100.00
25658;BME280;13517;59.320;18.042;2024-03-08T01:23:12;102154.13;;;-1.60;100.00
25658;BME280;13517;59.320;18.042;2024-03-08T01:25:39;102170.97;;;-1.55;100.00
25658;BME280;13517;59.320;18.042;2024-03-08T01:28:04;102162.97;;;-1.59;100.00
25658;BME280;13517;59.320;18.042;2024-03-08T01:30:30;102131.81;;;-1.84;100.00
25658;BME280;13517;59.320;18.042;2024-03-08T01:32:58;102194.88;;;-1.48;100.00
25658;BME280;13517;59.320;18.042;2024-03-08T01:35:23;102194.00;;;-1.47;100.00
25658;BME280;13517;59.320;18.042;2024-03-08T01:37:49;102160.25;;;-1.64;100.00
25658;BME280;13517;59.320;18.042;2024-03-08T01:40:15;102204.66;;;-1.38;100.00
25658;BME280;13517;59.320;18.042;2024-03-08T01:42:42;102172.69;;;-1.58;100.00
25658;BME280;13517;59.320;18.042;2024-03-08T01:45:08;102180.66;;;-1.55;100.00
25658;BME280;13517;59.320;18.042;2024-03-08T01:47:34;102194.00;;;-1.47;100.00
25658;BME280;13517;59.320;18.042;2024-03-08T01:50:01;102193.94;;;-1.51;100.00
25658;BME280;13517;59.320;18.042;2024-03-08T01:52:28;102201.91;;;-1.49;100.00
25658;BME280;13517;59.320;18.042;2024-03-08T01:54:58;102188.59;;;-1.58;100.00
25658;BME280;13517;59.320;18.042;2024-03-08T01:57:26;102145.91;;;-1.88;100.00
25658;BME280;13517;59.320;18.042;2024-03-08T01:59:53;102140.56;;;-1.93;100.00
25658;BME280;13517;59.320;18.042;2024-03-08T02:02:21;102196.53;;;-1.58;100.00
25658;BME280;13517;59.320;18.042;2024-03-08T02:04:47;102184.19;;;-1.56;100.00
25658;BME280;13517;59.320;18.042;2024-03-08T02:07:13;102181.50;;;-1.58;100.00
25658;BME280;13517;59.320;18.042;2024-03-08T02:09:38;102160.16;;;-1.76;100.00
25658;BME280;13517;59.320;18.042;2024-03-08T02:12:05;102137.06;;;-1.88;100.00
25658;BME280;13517;59.320;18.042;2024-03-08T02:14:30;102097.97;;;-2.14;100.00
25658;BME280;13517;59.320;18.042;2024-03-08T02:17:00;102177.88;;;-1.69;100.00
25658;BME280;13517;59.320;18.042;2024-03-08T02:19:26;102141.47;;;-1.90;100.00
25658;BME280;13517;59.320;18.042;2024-03-08T02:21:51;102136.13;;;-1.95;100.00
25658;BME280;13517;59.320;18.042;2024-03-08T02:24:17;102163.69;;;-1.74;100.00
25658;BME280;13517;59.320;18.042;2024-03-08T02:26:42;102160.91;;;-1.87;100.00
25658;BME280;13517;59.320;18.042;2024-03-08T02:29:09;102150.16;;;-2.02;100.00
25658;BME280;13517;59.320;18.042;2024-03-08T02:31:34;102120.88;;;-2.18;100.00
25658;BME280;13517;59.320;18.042;2024-03-08T02:34:00;102078.22;;;-2.46;100.00
25658;BME280;13517;59.320;18.042;2024-03-08T02:36:25;102142.13;;;-2.12;100.00
25658;BME280;13517;59.320;18.042;2024-03-08T02:38:50;102134.09;;;-2.20;100.00
25658;BME280;13517;59.320;18.042;2024-03-08T02:41:16;102125.19;;;-2.28;100.00
25658;BME280;13517;59.320;18.042;2024-03-08T02:43:41;102168.81;;;-1.95;100.00
25658;BME280;13517;59.320;18.042;2024-03-08T02:46:07;102076.41;;;-2.50;100.00
25658;BME280;13517;59.320;18.042;2024-03-08T02:48:32;102152.81;;;-2.02;100.00
25658;BME280;13517;59.320;18.042;2024-03-08T02:50:57;102108.38;;;-2.31;100.00
25658;BME280;13517;59.320;18.042;2024-03-08T02:53:23;102157.25;;;-2.01;100.00
25658;BME280;13517;59.320;18.042;2024-03-08T02:55:49;102080.00;;;-2.42;100.00
25658;BME280;13517;59.320;18.042;2024-03-08T02:58:15;102098.81;;;-2.17;100.00
25658;BME280;13517;59.320;18.042;2024-03-08T03:00:40;102097.94;;;-2.16;100.00
25658;BME280;13517;59.320;18.042;2024-03-08T03:03:06;102114.72;;;-2.15;100.00
25658;BME280;13517;59.320;18.042;2024-03-08T03:05:32;102152.03;;;-1.94;100.00
25658;BME280;13517;59.320;18.042;2024-03-08T03:07:59;102160.91;;;-1.88;100.00
25658;BME280;13517;59.320;18.042;2024-03-08T03:10:24;102131.59;;;-2.04;100.00
25658;BME280;13517;59.320;18.042;2024-03-08T03:12:50;102144.06;;;-1.95;100.00
25658;BME280;13517;59.320;18.042;2024-03-08T03:15:16;102167.13;;;-1.83;100.00
25658;BME280;13517;59.320;18.042;2024-03-08T03:17:46;102165.34;;;-1.86;100.00
25658;BME280;13517;59.320;18.042;2024-03-08T03:20:13;102133.34;;;-2.08;100.00
25658;BME280;13517;59.320;18.042;2024-03-08T03:22:39;102092.59;;;-2.22;100.00
25658;BME280;13517;59.320;18.042;2024-03-08T03:25:07;102133.44;;;-1.97;100.00
25658;BME280;13517;59.320;18.042;2024-03-08T03:27:33;102120.97;;;-2.09;100.00
25658;BME280;13517;59.320;18.042;2024-03-08T03:29:58;102094.34;;;-2.24;100.00
25658;BME280;13517;59.320;18.042;2024-03-08T03:32:44;102118.34;;;-2.06;100.00
25658;BME280;13517;59.320;18.042;2024-03-08T03:35:13;102111.19;;;-2.13;100.00
25658;BME280;13517;59.320;18.042;2024-03-08T03:37:40;102162.75;;;-1.80;100.00
25658;BME280;13517;59.320;18.042;2024-03-08T03:40:08;102152.09;;;-1.87;100.00
25658;BME280;13517;59.320;18.042;2024-03-08T03:42:34;102138.75;;;-1.95;100.00
25658;BME280;13517;59.320;18.042;2024-03-08T03:44:59;102142.28;;;-1.96;100.00
25658;BME280;13517;59.320;18.042;2024-03-08T03:47:25;102126.25;;;-2.12;100.00
25658;BME280;13517;59.320;18.042;2024-03-08T03:49:52;102083.66;;;-2.34;100.00
25658;BME280;13517;59.320;18.042;2024-03-08T03:52:18;102112.88;;;-2.24;100.00
25658;BME280;13517;59.320;18.042;2024-03-08T03:54:44;102122.69;;;-2.15;100.00
25658;BME280;13517;59.320;18.042;2024-03-08T03:57:09;102136.78;;;-2.15;100.00
25658;BME280;13517;59.320;18.042;2024-03-08T03:59:35;102143.03;;;-2.10;100.00
25658;BME280;13517;59.320;18.042;2024-03-08T04:02:00;102088.84;;;-2.44;100.00
25658;BME280;13517;59.320;18.042;2024-03-08T04:04:25;102130.56;;;-2.22;100.00
25658;BME280;13517;59.320;18.042;2024-03-08T04:06:51;102143.84;;;-2.17;100.00
25658;BME280;13517;59.320;18.042;2024-03-08T04:09:17;102120.75;;;-2.30;100.00
25658;BME280;13517;59.320;18.042;2024-03-08T04:11:44;102143.91;;;-2.11;100.00
25658;BME280;13517;59.320;18.042;2024-03-08T04:14:10;102111.00;;;-2.33;100.00
25658;BME280;13517;59.320;18.042;2024-03-08T04:16:35;102142.09;;;-2.15;100.00
25658;BME280;13517;59.320;18.042;2024-03-08T04:19:01;102146.47;;;-2.19;100.00
25658;BME280;13517;59.320;18.042;2024-03-08T04:21:32;102103.91;;;-2.37;100.00
25658;BME280;13517;59.320;18.042;2024-03-08T04:23:58;102062.19;;;-2.58;100.00
25658;BME280;13517;59.320;18.042;2024-03-08T04:26:23;102142.16;;;-2.06;100.00
25658;BME280;13517;59.320;18.042;2024-03-08T04:28:49;102119.06;;;-2.22;100.00
25658;BME280;13517;59.320;18.042;2024-03-08T04:31:14;102096.03;;;-2.33;100.00
25658;BME280;13517;59.320;18.042;2024-03-08T04:33:40;102104.88;;;-2.27;100.00
25658;BME280;13517;59.320;18.042;2024-03-08T04:36:06;102058.69;;;-2.57;100.00
25658;BME280;13517;59.320;18.042;2024-03-08T04:38:33;102121.75;;;-2.19;100.00
25658;BME280;13517;59.320;18.042;2024-03-08T04:40:59;102115.44;;;-2.30;100.00
25658;BME280;13517;59.320;18.042;2024-03-08T04:43:24;102095.09;;;-2.36;100.00
25658;BME280;13517;59.320;18.042;2024-03-08T04:45:52;102079.06;;;-2.49;100.00
25658;BME280;13517;59.320;18.042;2024-03-08T04:48:19;102082.59;;;-2.48;100.00
25658;BME280;13517;59.320;18.042;2024-03-08T04:50:44;102080.81;;;-2.49;100.00
25658;BME280;13517;59.320;18.042;2024-03-08T04:53:10;102104.03;;;-2.25;100.00
25658;BME280;13517;59.320;18.042;2024-03-08T04:55:35;102083.69;;;-2.30;100.00
25658;BME280;13517;59.320;18.042;2024-03-08T04:58:02;102112.94;;;-2.18;100.00
25658;BME280;13517;59.320;18.042;2024-03-08T05:00:29;102052.59;;;-2.50;100.00
25658;BME280;13517;59.320;18.042;2024-03-08T05:02:54;102090.72;;;-2.33;100.00
25658;BME280;13517;59.320;18.042;2024-03-08T05:05:20;102080.97;;;-2.37;100.00
25658;BME280;13517;59.320;18.042;2024-03-08T05:07:45;102080.94;;;-2.40;100.00
25658;BME280;13517;59.320;18.042;2024-03-08T05:10:11;102085.38;;;-2.36;100.00
25658;BME280;13517;59.320;18.042;2024-03-08T05:12:36;102087.13;;;-2.38;100.00
25658;BME280;13517;59.320;18.042;2024-03-08T05:15:05;102070.22;;;-2.52;100.00
25658;BME280;13517;59.320;18.042;2024-03-08T05:17:30;102088.81;;;-2.43;100.00
25658;BME280;13517;59.320;18.042;2024-03-08T05:19:55;102078.22;;;-2.46;100.00
25658;BME280;13517;59.320;18.042;2024-03-08T05:22:21;102112.88;;;-2.24;100.00
25658;BME280;13517;59.320;18.042;2024-03-08T05:24:47;102103.00;;;-2.41;100.00
25658;BME280;13517;59.320;18.042;2024-03-08T05:27:12;102120.75;;;-2.27;100.00
25658;BME280;13517;59.320;18.042;2024-03-08T05:29:38;102065.75;;;-2.55;100.00
25658;BME280;13517;59.320;18.042;2024-03-08T05:32:04;102101.25;;;-2.39;100.00
25658;BME280;13517;59.320;18.042;2024-03-08T05:34:29;102120.75;;;-2.30;100.00
25658;BME280;13517;59.320;18.042;2024-03-08T05:36:55;102097.72;;;-2.38;100.00
25658;BME280;13517;59.320;18.042;2024-03-08T05:39:20;102088.88;;;-2.40;100.00
25658;BME280;13517;59.320;18.042;2024-03-08T05:41:46;102090.72;;;-2.33;100.00
25658;BME280;13517;59.320;18.042;2024-03-08T05:44:13;102093.34;;;-2.34;100.00
25658;BME280;13517;59.320;18.042;2024-03-08T05:46:39;102046.34;;;-2.55;100.00
25658;BME280;13517;59.320;18.042;2024-03-08T05:49:05;102094.28;;;-2.27;100.00
25658;BME280;13517;59.320;18.042;2024-03-08T05:51:35;102107.59;;;-2.23;100.00
25658;BME280;13517;59.320;18.042;2024-03-08T05:54:02;102121.88;;;-2.07;100.00
25658;BME280;13517;59.320;18.042;2024-03-08T05:56:31;102126.28;;;-2.06;100.00
25658;BME280;13517;59.320;18.042;2024-03-08T05:58:56;102057.97;;;-2.42;100.00
25658;BME280;13517;59.320;18.042;2024-03-08T06:01:24;102049.09;;;-2.46;100.00
25658;BME280;13517;59.320;18.042;2024-03-08T06:03:49;102074.88;;;-2.29;100.00
25658;BME280;13517;59.320;18.042;2024-03-08T06:06:15;102092.63;;;-2.19;100.00
25658;BME280;13517;59.320;18.042;2024-03-08T06:08:41;102084.63;;;-2.22;100.00
25658;BME280;13517;59.320;18.042;2024-03-08T06:11:08;102113.03;;;-2.06;100.00
25658;BME280;13517;59.320;18.042;2024-03-08T06:13:34;102083.69;;;-2.27;100.00
25658;BME280;13517;59.320;18.042;2024-03-08T06:16:00;102128.16;;;-1.97;100.00
25658;BME280;13517;59.320;18.042;2024-03-08T06:18:29;102109.59;;;-2.00;100.00
25658;BME280;13517;59.320;18.042;2024-03-08T06:20:54;102093.63;;;-2.06;100.00
25658;BME280;13517;59.320;18.042;2024-03-08T06:23:20;102079.44;;;-2.14;100.00
25658;BME280;13517;59.320;18.042;2024-03-08T06:25:46;102071.59;;;-2.03;100.00
25658;BME280;13517;59.320;18.042;2024-03-08T06:28:12;102108.88;;;-1.82;100.00
25658;BME280;13517;59.320;18.042;2024-03-08T06:30:39;102062.72;;;-2.07;100.00
25658;BME280;13517;59.320;18.042;2024-03-08T06:33:06;102116.91;;;-1.71;100.00
25658;BME280;13517;59.320;18.042;2024-03-08T06:35:36;102108.91;;;-1.77;100.00
25658;BME280;13517;59.320;18.042;2024-03-08T06:38:04;102134.69;;;-1.59;100.00
25658;BME280;13517;59.320;18.042;2024-03-08T06:40:29;102076.19;;;-1.84;100.00
25658;BME280;13517;59.320;18.042;2024-03-08T06:42:55;102093.03;;;-1.75;100.00
25658;BME280;13517;59.320;18.042;2024-03-08T06:45:20;102132.09;;;-1.53;100.00
25658;BME280;13517;59.320;18.042;2024-03-08T06:47:47;102065.56;;;-1.85;100.00
25658;BME280;13517;59.320;18.042;2024-03-08T06:50:13;102125.06;;;-1.47;100.00
25658;BME280;13517;59.320;18.042;2024-03-08T06:52:40;102102.91;;;-1.57;100.00
25658;BME280;13517;59.320;18.042;2024-03-08T06:55:08;102131.28;;;-1.42;100.00
25658;BME280;13517;59.320;18.042;2024-03-08T06:57:39;102087.84;;;-1.63;100.00
25658;BME280;13517;59.320;18.042;2024-03-08T07:00:09;102044.38;;;-1.87;100.00
25658;BME280;13517;59.320;18.042;2024-03-08T07:02:36;102066.56;;;-1.72;100.00
25658;BME280;13517;59.320;18.042;2024-03-08T07:05:02;102086.09;;;-1.61;100.00
25658;BME280;13517;59.320;18.042;2024-03-08T07:07:29;102105.66;;;-1.43;100.00
25658;BME280;13517;59.320;18.042;2024-03-08T07:09:55;102095.06;;;-1.45;100.00
25658;BME280;13517;59.320;18.042;2024-03-08T07:12:22;102080.84;;;-1.52;100.00
25658;BME280;13517;59.320;18.042;2024-03-08T07:14:48;102136.81;;;-1.16;100.00
25658;BME280;13517;59.320;18.042;2024-03-08T07:17:14;102128.81;;;-1.20;100.00
25658;BME280;13517;59.320;18.042;2024-03-08T07:19:39;102044.53;;;-1.65;100.00
25658;BME280;13517;59.320;18.042;2024-03-08T07:22:05;102104.03;;;-1.23;100.00
25658;BME280;13517;59.320;18.042;2024-03-08T07:24:34;102065.00;;;-1.42;100.00
25658;BME280;13517;59.320;18.042;2024-03-08T07:27:18;102113.84;;;-1.07;100.00
25658;BME280;13517;59.320;18.042;2024-03-08T07:29:44;102119.13;;;-1.11;100.00
25658;BME280;13517;59.320;18.042;2024-03-08T07:32:09;102074.84;;;-1.24;100.00
25658;BME280;13517;59.320;18.042;2024-03-08T07:34:47;102107.66;;;-1.10;100.00
25658;BME280;13517;59.320;18.042;2024-03-08T07:37:14;102058.91;;;-1.32;100.00
25658;BME280;13517;59.320;18.042;2024-03-08T07:39:39;102096.13;;;-1.12;100.00
25658;BME280;13517;59.320;18.042;2024-03-08T07:42:05;102098.84;;;-1.04;100.00
25658;BME280;13517;59.320;18.042;2024-03-08T07:44:30;102079.31;;;-1.15;100.00
25658;BME280;13517;59.320;18.042;2024-03-08T07:46:59;102070.50;;;-1.16;100.00
25658;BME280;13517;59.320;18.042;2024-03-08T07:49:24;102043.91;;;-1.25;100.00
25658;BME280;13517;59.320;18.042;2024-03-08T07:51:50;102075.88;;;-1.05;100.00
25658;BME280;13517;59.320;18.042;2024-03-08T07:54:17;102062.53;;;-1.13;100.00
25658;BME280;13517;59.320;18.042;2024-03-08T07:56:42;102117.53;;;-0.79;100.00
25658;BME280;13517;59.320;18.042;2024-03-08T07:59:08;102074.13;;;-0.97;100.00
25658;BME280;13517;59.320;18.042;2024-03-08T08:01:33;102100.72;;;-0.81;100.00
25658;BME280;13517;59.320;18.042;2024-03-08T08:03:59;102109.63;;;-0.73;100.00
25658;BME280;13517;59.320;18.042;2024-03-08T08:06:27;102109.66;;;-0.66;100.00
25658;BME280;13517;59.320;18.042;2024-03-08T08:08:52;102123.00;;;-0.52;100.00
25658;BME280;13517;59.320;18.042;2024-03-08T08:11:18;102038.75;;;-1.00;100.00
25658;BME280;13517;59.320;18.042;2024-03-08T08:13:43;102069.78;;;-0.79;100.00
25658;BME280;13517;59.320;18.042;2024-03-08T08:16:09;102072.50;;;-0.70;100.00
25658;BME280;13517;59.320;18.042;2024-03-08T08:18:36;102117.72;;;-0.37;100.00
25658;BME280;13517;59.320;18.042;2024-03-08T08:21:05;102114.19;;;-0.33;100.00
25658;BME280;13517;59.320;18.042;2024-03-08T08:23:33;102120.44;;;-0.26;100.00
25658;BME280;13517;59.320;18.042;2024-03-08T08:25:59;102081.44;;;-0.35;100.00
25658;BME280;13517;59.320;18.042;2024-03-08T08:28:25;102107.16;;;-0.15;100.00
25658;BME280;13517;59.320;18.042;2024-03-08T08:30:50;102108.03;;;-0.15;100.00
25658;BME280;13517;59.320;18.042;2024-03-08T08:33:16;102080.56;;;-0.29;100.00
25658;BME280;13517;59.320;18.042;2024-03-08T08:35:41;102059.31;;;-0.35;100.00
25658;BME280;13517;59.320;18.042;2024-03-08T08:38:08;102102.78;;;0.01;100.00
25658;BME280;13517;59.320;18.042;2024-03-08T08:40:34;102086.81;;;-0.08;100.00
25658;BME280;13517;59.320;18.042;2024-03-08T08:43:01;102073.50;;;-0.13;100.00
25658;BME280;13517;59.320;18.042;2024-03-08T08:45:30;102077.06;;;-0.03;100.00
25658;BME280;13517;59.320;18.042;2024-03-08T08:47:56;102083.28;;;-0.03;100.00
25658;BME280;13517;59.320;18.042;2024-03-08T08:50:21;102059.34;;;-0.10;100.00
25658;BME280;13517;59.320;18.042;2024-03-08T08:52:50;102093.03;;;0.14;100.00
25658;BME280;13517;59.320;18.042;2024-03-08T08:55:16;102112.53;;;0.27;100.00
25658;BME280;13517;59.320;18.042;2024-03-08T08:57:46;102091.28;;;0.15;100.00
25658;BME280;13517;59.320;18.042;2024-03-08T09:00:13;102101.00;;;0.34;100.00
25658;BME280;13517;59.320;18.042;2024-03-08T09:02:40;102087.72;;;0.34;100.00
25658;BME280;13517;59.320;18.042;2024-03-08T09:05:06;102001.81;;;-0.16;100.00
25658;BME280;13517;59.320;18.042;2024-03-08T09:07:33;102047.84;;;0.19;100.00
25658;BME280;13517;59.320;18.042;2024-03-08T09:10:02;102072.66;;;0.32;100.00
25658;BME280;13517;59.320;18.042;2024-03-08T09:12:28;102070.91;;;0.40;100.00
25658;BME280;13517;59.320;18.042;2024-03-08T09:14:53;102047.84;;;0.36;100.00
25658;BME280;13517;59.320;18.042;2024-03-08T09:17:19;102093.91;;;0.74;100.00
25658;BME280;13517;59.320;18.042;2024-03-08T09:19:49;102080.63;;;0.69;100.00
25658;BME280;13517;59.320;18.042;2024-03-08T09:22:15;102052.25;;;0.59;100.00
25658;BME280;13517;59.320;18.042;2024-03-08T09:24:40;102084.13;;;0.80;100.00
25658;BME280;13517;59.320;18.042;2024-03-08T09:27:06;102023.03;;;0.42;100.00
25658;BME280;13517;59.320;18.042;2024-03-08T09:29:31;102077.94;;;0.80;100.00
25658;BME280;13517;59.320;18.042;2024-03-08T09:31:57;102020.34;;;0.54;100.00
25658;BME280;13517;59.320;18.042;2024-03-08T09:34:22;102048.66;;;0.77;100.00
25658;BME280;13517;59.320;18.042;2024-03-08T09:36:48;102034.50;;;0.68;100.00
25658;BME280;13517;59.320;18.042;2024-03-08T09:39:14;102028.28;;;0.79;100.00
25658;BME280;13517;59.320;18.042;2024-03-08T09:41:45;102048.59;;;1.00;100.00
25658;BME280;13517;59.320;18.042;2024-03-08T09:44:13;102053.91;;;1.08;100.00
25658;BME280;13517;59.320;18.042;2024-03-08T09:46:39;102062.72;;;1.22;100.00
25658;BME280;13517;59.320;18.042;2024-03-08T09:49:06;102035.25;;;1.11;100.00
25658;BME280;13517;59.320;18.042;2024-03-08T09:51:33;101994.53;;;0.93;100.00
25658;BME280;13517;59.320;18.042;2024-03-08T09:54:01;102074.16;;;1.48;100.00
25658;BME280;13517;59.320;18.042;2024-03-08T09:56:32;102049.28;;;1.47;100.00
25658;BME280;13517;59.320;18.042;2024-03-08T09:58:58;102022.78;;;1.29;100.00
25658;BME280;13517;59.320;18.042;2024-03-08T10:01:50;102066.09;;;1.57;100.00
25658;BME280;13517;59.320;18.042;2024-03-08T10:04:17;102071.38;;;1.68;100.00
25658;BME280;13517;59.320;18.042;2024-03-08T10:06:43;102075.81;;;1.72;100.00
25658;BME280;13517;59.320;18.042;2024-03-08T10:09:12;102022.69;;;1.44;100.00
25658;BME280;13517;59.320;18.042;2024-03-08T10:11:40;102056.28;;;1.70;100.00
25658;BME280;13517;59.320;18.042;2024-03-08T10:14:10;102050.06;;;1.68;100.00
25658;BME280;13517;59.320;18.042;2024-03-08T10:16:36;102072.16;;;1.83;100.00
25658;BME280;13517;59.320;18.042;2024-03-08T10:19:01;102046.41;;;1.83;100.00
25658;BME280;13517;59.320;18.042;2024-03-08T10:21:26;101993.31;;;1.54;100.00
25658;BME280;13517;59.320;18.042;2024-03-08T10:23:52;102050.81;;;1.89;100.00
25658;BME280;13517;59.320;18.042;2024-03-08T10:26:19;102044.56;;;1.93;100.00
25658;BME280;13517;59.320;18.042;2024-03-08T10:28:48;102070.22;;;2.08;100.00
25658;BME280;13517;59.320;18.042;2024-03-08T10:31:14;102052.53;;;1.96;100.00
25658;BME280;13517;59.320;18.042;2024-03-08T10:33:43;102075.53;;;2.10;100.00
25658;BME280;13517;59.320;18.042;2024-03-08T10:36:10;102081.78;;;2.10;100.00
25658;BME280;13517;59.320;18.042;2024-03-08T10:38:40;102076.41;;;2.12;100.00
25658;BME280;13517;59.320;18.042;2024-03-08T10:41:06;102063.94;;;2.17;100.00
25658;BME280;13517;59.320;18.042;2024-03-08T10:48:49;102067.47;;;2.21;100.00
25658;BME280;13517;59.320;18.042;2024-03-08T10:51:15;102077.22;;;2.23;100.00
25658;BME280;13517;59.320;18.042;2024-03-08T10:53:42;102053.31;;;2.11;100.00
25658;BME280;13517;59.320;18.042;2024-03-08T10:56:09;102045.31;;;2.14;100.00
25658;BME280;13517;59.320;18.042;2024-03-08T10:58:36;102074.47;;;2.34;100.00
25658;BME280;13517;59.320;18.042;2024-03-08T11:01:02;102063.84;;;2.28;100.00
25658;BME280;13517;59.320;18.042;2024-03-08T11:06:07;102061.09;;;2.37;100.00
25658;BME280;13517;59.320;18.042;2024-03-08T11:08:36;102046.94;;;2.30;100.00
25658;BME280;13517;59.320;18.042;2024-03-08T11:11:01;102054.94;;;2.32;100.00
25658;BME280;13517;59.320;18.042;2024-03-08T11:16:10;102076.13;;;2.49;100.00
25658;BME280;13517;59.320;18.042;2024-03-08T11:18:36;102062.75;;;2.51;100.00
25658;BME280;13517;59.320;18.042;2024-03-08T11:21:08;102059.25;;;2.45;100.00
25658;BME280;13517;59.320;18.042;2024-03-08T11:23:37;102048.59;;;2.45;100.00
25658;BME280;13517;59.320;18.042;2024-03-08T11:26:17;102040.59;;;2.44;100.00
25658;BME280;13517;59.320;18.042;2024-03-08T11:28:43;102038.78;;;2.49;100.00
25658;BME280;13517;59.320;18.042;2024-03-08T11:33:35;102060.81;;;2.68;100.00
25658;BME280;13517;59.320;18.042;2024-03-08T11:36:07;102056.34;;;2.69;100.00
25658;BME280;13517;59.320;18.042;2024-03-08T11:38:46;102026.34;;;2.48;100.00
25658;BME280;13517;59.320;18.042;2024-03-08T11:41:18;102051.91;;;2.69;100.00
25658;BME280;13517;59.320;18.042;2024-03-08T11:43:45;102018.28;;;2.51;100.00
25658;BME280;13517;59.320;18.042;2024-03-08T11:46:11;102053.66;;;2.74;100.00
25658;BME280;13517;59.320;18.042;2024-03-08T11:48:41;102028.81;;;2.67;100.00
25658;BME280;13517;59.320;18.042;2024-03-08T11:51:08;101990.72;;;2.52;100.00
25658;BME280;13517;59.320;18.042;2024-03-08T11:53:34;102007.50;;;2.61;100.00
25658;BME280;13517;59.320;18.042;2024-03-08T11:56:11;102048.25;;;2.78;100.00
25658;BME280;13517;59.320;18.042;2024-03-08T11:58:40;102040.25;;;2.78;100.00
25658;BME280;13517;59.320;18.042;2024-03-08T12:01:07;102011.09;;;2.59;100.00
25658;BME280;13517;59.320;18.042;2024-03-08T12:03:34;102016.41;;;2.63;100.00
25658;BME280;13517;59.320;18.042;2024-03-08T12:06:00;102037.59;;;2.75;100.00
25658;BME280;13517;59.320;18.042;2024-03-08T12:08:28;102049.06;;;2.83;100.00
25658;BME280;13517;59.320;18.042;2024-03-08T12:10:54;101964.09;;;2.44;100.00
25658;BME280;13517;59.320;18.042;2024-03-08T12:13:32;101996.81;;;2.64;100.00
25658;BME280;13517;59.320;18.042;2024-03-08T12:15:59;102046.50;;;2.77;100.00
25658;BME280;13517;59.320;18.042;2024-03-08T12:18:27;101993.38;;;2.52;100.00
25658;BME280;13517;59.320;18.042;2024-03-08T12:21:13;102038.44;;;2.79;100.00
25658;BME280;13517;59.320;18.042;2024-03-08T12:23:43;101989.75;;;2.59;100.00
25658;BME280;13517;59.320;18.042;2024-03-08T12:26:24;102023.31;;;2.81;100.00
25658;BME280;13517;59.320;18.042;2024-03-08T12:28:51;102025.03;;;2.86;100.00
25658;BME280;13517;59.320;18.042;2024-03-08T12:31:17;102038.25;;;2.96;100.00
25658;BME280;13517;59.320;18.042;2024-03-08T12:33:53;102031.16;;;2.95;100.00
25658;BME280;13517;59.320;18.042;2024-03-08T12:36:21;102012.53;;;2.89;100.00
25658;BME280;13517;59.320;18.042;2024-03-08T12:38:47;101992.16;;;2.81;100.00
25658;BME280;13517;59.320;18.042;2024-03-08T12:41:16;102033.81;;;2.98;100.00
25658;BME280;13517;59.320;18.042;2024-03-08T12:43:43;102016.09;;;2.91;100.00